Time;durP1;ratioP1;P1;durP2;ratioP2;P2;SDS_P1;SDS_P2;PMS_P1;PMS_P2;Temp;Humidity;BMP_temperature;BMP_pressure;BME280_temperature;BME280_humidity;BME280_pressure;Samples;Min_cycle;Max_cycle;Signal;HPM_P1;HPM_P2
2022/06/25 00:37:38;;;;;;;1.40;1.10;;;27.40;50.90;;;;;;5777530;24;20477;-80
2022/06/25 00:40:53;;;;;;;1.77;1.27;;;27.40;50.90;;;;;;5757098;24;20416;-80
2022/06/25 01:00:34;;;;;;;1.60;1.37;;;27.40;51.00;;;;;;5727201;24;20369;-81
2022/06/25 01:10:52;;;;;;;1.97;1.20;;;27.30;50.90;;;;;;5906487;24;21029;-81
2022/06/25 01:14:09;;;;;;;1.30;1.13;;;27.30;50.90;;;;;;5932424;24;20459;-80
2022/06/25 01:27:49;;;;;;;;;;;;;;;;;;;;;
2022/06/25 01:47:58;;;;;;;;;;;;;;;;;;;;;
2022/06/25 02:08:23;;;;;;;1.50;1.40;;;27.40;50.90;;;;;;5915054;24;20371;-82
2022/06/25 02:15:13;;;;;;;1.27;1.17;;;27.30;50.90;;;;;;5914826;24;20507;-82
2022/06/25 02:42:10;;;;;;;3.70;1.53;;;27.30;50.90;;;;;;5914870;24;20483;-82
2022/06/25 02:55:25;;;;;;;;;;;;;;;;;;;;;
2022/06/25 03:15:34;;;;;;;2.53;2.33;;;27.10;51.00;;;;;;5943192;24;20429;-82
2022/06/25 03:18:55;;;;;;;;;;;;;;;;;;;;;
2022/06/25 03:22:43;;;;;;;;;;;;;;;;;;;;;
2022/06/25 03:33:26;;;;;;;;;;;;;;;;;;;;;
2022/06/25 03:47:01;;;;;;;;;;;;;;;;;;;;;
2022/06/25 03:53:46;;;;;;;1.87;1.77;;;27.10;51.20;;;;;;5705433;25;20534;-82
2022/06/25 04:11:16;;;;;;;;;;;;;;;;;;;;;
2022/06/25 04:21:35;;;;;;;2.40;2.07;;;26.90;51.20;;;;;;5791800;24;20371;-80
2022/06/25 04:36:20;;;;;;;;;;;;;;;;;;;;;
2022/06/25 05:27:28;;;;;;;;;;;;;;;;;;;;;
2022/06/25 05:47:26;;;;;;;2.40;2.20;;;26.90;51.50;;;;;;5729126;24;20370;-81
2022/06/25 05:49:52;;;;;;;3.23;2.33;;;26.90;51.50;;;;;;5725530;25;20394;-82
2022/06/25 06:10:16;;;;;;;2.37;2.17;;;26.90;51.40;;;;;;5847890;24;20448;-82
2022/06/25 06:40:39;;;;;;;2.23;2.10;;;26.80;51.40;;;;;;5829522;24;20374;-82
2022/06/25 06:43:58;;;;;;;2.90;1.90;;;26.80;51.40;;;;;;5805955;24;20426;-82
2022/06/25 06:53:53;;;;;;;4.30;2.10;;;26.90;51.50;;;;;;5832621;24;20472;-82
2022/06/25 07:24:10;;;;;;;2.83;1.97;;;26.90;51.30;;;;;;5858897;24;20377;-82
2022/06/25 10:49:37;;;;;;;;;;;;;;;;;;;;;
2022/06/25 10:59:58;;;;;;;2.40;2.20;;;27.10;50.50;;;;;;5882522;24;20368;-86
2022/06/25 11:03:19;;;;;;;;;;;;;;;;;;;;;
2022/06/25 11:13:34;;;;;;;3.00;2.20;;;27.10;50.30;;;;;;5828228;24;20513;-87
2022/06/25 11:19:48;;;;;;;3.87;1.90;;;27.10;50.20;;;;;;5803213;24;20384;-84
2022/06/25 11:22:14;;;;;;;2.47;2.27;;;27.20;50.10;;;;;;5807351;24;20400;-85
2022/06/25 11:28:47;;;;;;;2.47;2.27;;;27.10;49.80;;;;;;5806818;24;20451;-84
2022/06/25 11:30:17;;;;;;;1.90;1.70;;;27.20;49.90;;;;;;5679143;25;20423;-84
2022/06/25 11:32:47;;;;;;;1.83;1.73;;;27.20;49.90;;;;;;5734048;24;20818;-85
2022/06/25 11:35:16;;;;;;;2.13;1.97;;;27.20;49.90;;;;;;5755303;25;20269;-84
2022/06/25 11:37:45;;;;;;;2.20;2.00;;;27.30;50.00;;;;;;5794768;24;20927;-85
2022/06/25 11:40:17;;;;;;;1.60;1.50;;;27.30;49.90;;;;;;5872356;24;20408;-85
2022/06/25 11:43:11;;;;;;;1.83;1.73;;;27.30;49.90;;;;;;5970420;23;20400;-84
2022/06/25 11:45:50;;;;;;;1.93;1.73;;;27.30;49.90;;;;;;6025719;23;20512;-84
2022/06/25 11:48:17;;;;;;;2.73;1.80;;;27.30;49.80;;;;;;6025795;23;20384;-84
2022/06/25 11:50:44;;;;;;;2.10;1.90;;;27.30;49.80;;;;;;6024648;23;20408;-84
2022/06/25 11:53:10;;;;;;;2.07;1.87;;;27.30;49.80;;;;;;6025649;23;20428;-84
2022/06/25 11:55:39;;;;;;;1.73;1.63;;;27.30;49.80;;;;;;6043018;23;20598;-83
2022/06/25 11:58:05;;;;;;;2.10;1.90;;;27.30;49.80;;;;;;6112809;23;20453;-84
2022/06/25 12:00:31;;;;;;;2.20;2.00;;;27.40;49.80;;;;;;6111986;23;20386;-83
2022/06/25 12:03:04;;;;;;;1.93;1.73;;;27.40;49.80;;;;;;6113325;23;20710;-83
2022/06/25 12:05:31;;;;;;;2.00;1.90;;;27.40;49.80;;;;;;6112788;23;20158;-84
2022/06/25 12:07:57;;;;;;;1.50;1.40;;;27.40;49.80;;;;;;6112296;23;20386;-83
2022/06/25 12:10:23;;;;;;;1.67;1.57;;;27.40;49.80;;;;;;6113262;23;20395;-84
2022/06/25 12:12:50;;;;;;;1.60;1.50;;;27.40;49.80;;;;;;6113786;23;20157;-83
2022/06/25 12:15:15;;;;;;;2.27;1.57;;;27.40;49.80;;;;;;6113742;23;20837;-83
2022/06/25 12:17:43;;;;;;;1.67;1.57;;;27.40;49.70;;;;;;6112163;23;20405;-83
2022/06/25 12:20:14;;;;;;;1.40;1.30;;;27.40;49.70;;;;;;6112561;23;20169;-83
2022/06/25 12:22:47;;;;;;;1.60;1.50;;;27.40;49.70;;;;;;6111757;23;20517;-82
2022/06/25 12:25:26;;;;;;;1.73;1.63;;;27.40;49.70;;;;;;6113412;23;20382;-83
2022/06/25 12:27:52;;;;;;;1.70;1.60;;;27.40;49.70;;;;;;6113975;23;20366;-82
2022/06/25 12:30:30;;;;;;;1.67;1.57;;;27.50;49.80;;;;;;6112002;23;20465;-83
2022/06/25 12:33:04;;;;;;;1.73;1.63;;;27.50;49.80;;;;;;6113954;23;20374;-83
2022/06/25 12:35:31;;;;;;;1.83;1.73;;;27.50;49.80;;;;;;6088247;23;20393;-83
2022/06/25 12:38:11;;;;;;;2.10;1.80;;;27.50;49.70;;;;;;6113334;23;20413;-83
2022/06/25 12:40:43;;;;;;;5.70;4.67;;;27.50;49.70;;;;;;6113886;23;20373;-83
2022/06/25 12:43:11;;;;;;;3.90;3.10;;;27.50;49.70;;;;;;6111884;23;20374;-83
2022/06/25 12:45:39;;;;;;;4.73;3.30;;;27.50;49.70;;;;;;6112850;23;20390;-83
2022/06/25 12:48:06;;;;;;;4.53;2.50;;;27.50;49.70;;;;;;6112020;23;20390;-83
2022/06/25 12:50:36;;;;;;;3.80;2.57;;;27.50;49.70;;;;;;6114525;23;20414;-83
2022/06/25 12:53:14;;;;;;;7.90;3.93;;;27.50;49.60;;;;;;6112750;23;20386;-83
2022/06/25 12:55:45;;;;;;;5.20;3.47;;;27.50;49.60;;;;;;6112684;23;20409;-83
2022/06/25 12:58:13;;;;;;;7.67;3.83;;;27.50;49.60;;;;;;6112377;23;20382;-83
2022/06/25 13:00:43;;;;;;;4.70;3.63;;;27.50;49.60;;;;;;6111819;23;20390;-83
2022/06/25 13:03:09;;;;;;;5.70;4.33;;;27.50;49.50;;;;;;6113489;23;20374;-83
2022/06/25 13:05:35;;;;;;;7.60;4.20;;;27.50;49.50;;;;;;6111926;23;20389;-84
2022/06/25 13:08:01;;;;;;;6.73;4.40;;;27.50;49.50;;;;;;6111644;23;20449;-83
2022/06/25 13:10:27;;;;;;;7.50;3.90;;;27.50;49.40;;;;;;6111735;23;20388;-83
2022/06/25 13:12:53;;;;;;;7.07;4.53;;;27.50;49.40;;;;;;6113003;23;20434;-84
2022/06/25 13:15:23;;;;;;;5.30;3.80;;;27.50;49.40;;;;;;6112142;23;20478;-82
2022/06/25 13:17:51;;;;;;;6.83;3.87;;;27.50;49.40;;;;;;6112084;23;20374;-82
2022/06/25 13:20:17;;;;;;;6.37;3.20;;;27.50;49.30;;;;;;6111905;23;20381;-82
2022/06/25 13:22:44;;;;;;;5.37;4.00;;;27.50;49.30;;;;;;6112768;23;20369;-82
2022/06/25 13:25:11;;;;;;;4.90;3.73;;;27.50;49.20;;;;;;6111962;23;20458;-82
2022/06/25 13:27:38;;;;;;;4.77;3.90;;;27.50;49.20;;;;;;6112902;23;20382;-82
2022/06/25 13:30:05;;;;;;;4.70;3.47;;;27.50;49.20;;;;;;6112362;23;20390;-82
2022/06/25 13:32:31;;;;;;;3.70;3.33;;;27.50;49.10;;;;;;6112474;23;20385;-83
2022/06/25 13:34:57;;;;;;;7.80;3.50;;;27.60;49.20;;;;;;6111819;23;20814;-83
2022/06/25 13:37:23;;;;;;;4.43;3.33;;;27.60;49.10;;;;;;6111717;23;20597;-83
2022/06/25 13:39:49;;;;;;;8.07;3.87;;;27.60;49.10;;;;;;6113277;23;20161;-85
2022/06/25 13:42:14;;;;;;;5.30;3.67;;;27.60;49.10;;;;;;6112885;23;20158;-82
2022/06/25 13:44:40;;;;;;;6.77;4.10;;;27.60;49.00;;;;;;6113392;23;20492;-82
2022/06/25 13:47:08;;;;;;;5.10;3.27;;;27.60;49.00;;;;;;6113214;23;20185;-82
2022/06/25 13:49:35;;;;;;;5.27;3.63;;;27.60;49.00;;;;;;6113321;23;20158;-82
2022/06/25 13:52:01;;;;;;;4.10;3.20;;;27.60;49.00;;;;;;6114513;23;20389;-82
2022/06/25 13:54:52;;;;;;;3.33;2.97;;;27.60;49.00;;;;;;6119235;23;20421;-82
2022/06/25 13:57:32;;;;;;;;;;;;;;;;;;;;;
2022/06/25 14:02:57;;;;;;;3.10;2.43;;;27.60;48.90;;;;;;6133473;23;20373;-81
2022/06/25 14:05:28;;;;;;;2.83;2.40;;;27.60;48.90;;;;;;6121278;23;20404;-82
2022/06/25 14:07:54;;;;;;;2.90;2.50;;;27.60;48.90;;;;;;6144274;23;20152;-82
2022/06/25 14:10:23;;;;;;;4.27;2.70;;;27.60;48.90;;;;;;6119107;23;20381;-84
2022/06/25 14:12:51;;;;;;;2.90;2.67;;;27.60;48.90;;;;;;6122244;23;20153;-85
2022/06/25 14:15:17;;;;;;;3.00;2.27;;;27.60;48.90;;;;;;6147772;23;20444;-84
2022/06/25 14:17:47;;;;;;;5.30;3.60;;;27.60;48.80;;;;;;6122790;23;20457;-85
2022/06/25 14:20:13;;;;;;;4.43;2.90;;;27.60;48.90;;;;;;6121921;23;20416;-84
2022/06/25 14:22:39;;;;;;;3.13;2.70;;;27.60;48.90;;;;;;6147703;23;20364;-84
2022/06/25 14:25:26;;;;;;;3.73;3.10;;;27.60;48.90;;;;;;6120235;23;20176;-84
2022/06/25 14:27:59;;;;;;;5.33;3.43;;;27.60;48.90;;;;;;6121079;23;20174;-84
2022/06/25 14:30:32;;;;;;;5.10;3.30;;;27.60;48.90;;;;;;6146911;23;20333;-84
2022/06/25 14:33:02;;;;;;;3.40;3.10;;;27.60;48.90;;;;;;6146862;23;20353;-84
2022/06/25 14:35:28;;;;;;;3.73;2.97;;;27.60;48.90;;;;;;6096484;23;20383;-84
2022/06/25 14:44:05;;;;;;;5.03;3.23;;;27.60;48.90;;;;;;6000641;24;20737;-84
2022/06/25 14:46:30;;;;;;;4.80;3.50;;;27.60;48.90;;;;;;6000511;24;20449;-84
2022/06/25 14:48:56;;;;;;;3.60;3.30;;;27.60;49.00;;;;;;5977526;24;20385;-84
2022/06/25 14:51:25;;;;;;;4.53;3.40;;;27.60;49.00;;;;;;6000275;24;20168;-84
2022/06/25 14:53:52;;;;;;;4.07;3.60;;;27.60;48.90;;;;;;6000827;24;20255;-85
2022/06/25 14:56:33;;;;;;;3.00;2.80;;;27.60;48.90;;;;;;5980777;24;20417;-83
2022/06/25 14:59:21;;;;;;;3.90;3.27;;;27.60;49.50;;;;;;6003719;23;20393;-84
2022/06/25 15:01:46;;;;;;;3.40;3.07;;;27.60;48.90;;;;;;5979933;24;20409;-83
2022/06/25 15:04:14;;;;;;;4.47;3.10;;;27.60;48.90;;;;;;5998694;24;20388;-84
2022/06/25 15:06:43;;;;;;;5.00;3.10;;;27.60;48.90;;;;;;5980151;24;20457;-84
2022/06/25 15:09:09;;;;;;;3.80;3.00;;;27.60;48.90;;;;;;5976989;24;20167;-83
2022/06/25 15:11:37;;;;;;;3.93;3.40;;;27.60;48.90;;;;;;6067133;23;20380;-84
2022/06/25 15:18:19;;;;;;;3.63;2.63;;;27.60;48.90;;;;;;6082058;23;20404;-83
2022/06/25 15:20:45;;;;;;;3.00;2.70;;;27.60;48.90;;;;;;6009783;23;20420;-83
2022/06/25 15:23:17;;;;;;;3.60;3.00;;;27.60;48.80;;;;;;6008736;24;20369;-83
2022/06/25 15:25:54;;;;;;;3.33;3.03;;;27.60;48.90;;;;;;5983518;24;20377;-83
2022/06/25 15:28:20;;;;;;;3.57;2.90;;;27.60;48.80;;;;;;6008865;24;20418;-84
2022/06/25 15:30:46;;;;;;;3.90;3.20;;;27.60;48.80;;;;;;5978449;24;20389;-84
2022/06/25 15:36:12;;;;;;;4.70;2.63;;;27.60;48.80;;;;;;6010598;23;20171;-83
2022/06/25 15:38:42;;;;;;;2.93;2.60;;;27.60;48.80;;;;;;5986786;24;20365;-83
2022/06/25 15:41:11;;;;;;;3.13;2.83;;;27.60;48.80;;;;;;6009407;24;20445;-84
2022/06/25 15:43:46;;;;;;;2.70;2.43;;;27.60;48.80;;;;;;5984609;24;20388;-83
2022/06/25 15:46:16;;;;;;;3.10;2.63;;;27.60;48.80;;;;;;5985802;24;20501;-83
2022/06/25 15:48:45;;;;;;;4.60;3.23;;;27.60;48.80;;;;;;5986068;24;20413;-83
2022/06/25 15:51:11;;;;;;;2.93;2.60;;;27.60;48.80;;;;;;6008133;24;20400;-83
2022/06/25 15:53:37;;;;;;;2.60;2.37;;;27.60;48.80;;;;;;5994715;23;20425;-84
2022/06/25 15:59:41;;;;;;;2.73;2.47;;;27.60;48.70;;;;;;6121498;23;20373;-85
2022/06/25 16:02:13;;;;;;;3.07;2.67;;;27.60;48.80;;;;;;6121734;23;20370;-84
2022/06/25 16:04:48;;;;;;;3.27;2.93;;;27.60;48.80;;;;;;6124670;23;20358;-84
2022/06/25 16:07:14;;;;;;;3.37;2.50;;;27.60;48.80;;;;;;6124097;23;20382;-83
2022/06/25 16:09:48;;;;;;;3.30;2.97;;;27.60;48.80;;;;;;6122452;23;20468;-84
2022/06/25 16:12:14;;;;;;;2.30;2.10;;;27.60;48.80;;;;;;6119088;23;20468;-83
2022/06/25 16:14:48;;;;;;;4.43;2.60;;;27.60;48.80;;;;;;6147817;23;20433;-84
2022/06/25 16:17:34;;;;;;;5.20;2.80;;;27.60;48.80;;;;;;6125408;23;20371;-84
2022/06/25 16:20:01;;;;;;;2.80;2.50;;;27.70;48.80;;;;;;6124436;23;20357;-84
2022/06/25 16:22:57;;;;;;;2.50;2.07;;;27.60;48.80;;;;;;6124804;23;20384;-84
2022/06/25 16:25:25;;;;;;;3.10;2.90;;;27.60;48.80;;;;;;6124365;23;20374;-84
2022/06/25 16:27:53;;;;;;;3.60;2.20;;;27.60;48.80;;;;;;6124060;23;20398;-84
2022/06/25 16:30:28;;;;;;;3.40;2.30;;;27.60;48.80;;;;;;6113536;23;20378;-84
2022/06/25 16:32:56;;;;;;;2.67;2.47;;;27.60;48.80;;;;;;6124400;23;20366;-84
2022/06/25 16:35:33;;;;;;;3.03;2.50;;;27.60;48.80;;;;;;6124665;23;20393;-84
2022/06/25 16:38:02;;;;;;;3.13;2.13;;;27.60;48.80;;;;;;6125328;23;20366;-84
2022/06/25 16:40:27;;;;;;;4.90;2.40;;;27.60;48.80;;;;;;6124002;23;20378;-83
2022/06/25 16:42:53;;;;;;;2.30;2.10;;;27.70;48.80;;;;;;6124241;23;20150;-84
2022/06/25 16:45:26;;;;;;;3.63;2.70;;;27.60;48.80;;;;;;6125290;23;20138;-84
2022/06/25 16:47:55;;;;;;;2.43;2.17;;;27.70;48.80;;;;;;6124823;23;20373;-83
2022/06/25 16:50:22;;;;;;;6.80;2.23;;;27.70;48.80;;;;;;6124214;23;20386;-83
2022/06/25 16:52:54;;;;;;;2.53;2.00;;;27.70;48.80;;;;;;6123038;23;20381;-84
2022/06/25 16:55:29;;;;;;;2.17;1.97;;;27.70;48.80;;;;;;6124064;23;20373;-84
2022/06/25 16:58:03;;;;;;;2.40;2.20;;;27.70;48.90;;;;;;6123645;23;20406;-84
2022/06/25 17:00:29;;;;;;;2.87;2.13;;;27.70;48.80;;;;;;6122657;23;20377;-83
2022/06/25 17:02:58;;;;;;;3.40;2.33;;;27.70;48.80;;;;;;6123600;23;20358;-83
2022/06/25 17:05:34;;;;;;;2.40;2.07;;;27.70;48.80;;;;;;6122071;23;20393;-83
2022/06/25 17:08:05;;;;;;;3.17;2.87;;;27.70;48.80;;;;;;6120772;23;20362;-82
2022/06/25 17:10:34;;;;;;;2.50;2.30;;;27.70;48.80;;;;;;6097981;23;20394;-83
2022/06/25 17:13:13;;;;;;;2.97;2.00;;;27.70;48.80;;;;;;6121464;23;20409;-83
2022/06/25 17:15:39;;;;;;;3.53;2.20;;;27.70;48.80;;;;;;6120830;23;20445;-84
2022/06/25 17:18:05;;;;;;;2.13;1.93;;;27.70;48.80;;;;;;6121023;23;20425;-83
2022/06/25 17:20:37;;;;;;;2.77;1.93;;;27.70;48.80;;;;;;6121560;23;20370;-83
2022/06/25 17:23:05;;;;;;;2.60;2.10;;;27.70;48.80;;;;;;6119944;23;20382;-83
2022/06/25 17:25:31;;;;;;;4.90;2.70;;;27.70;48.80;;;;;;6119516;23;20382;-83
2022/06/25 17:28:03;;;;;;;1.93;1.73;;;27.60;48.80;;;;;;6119681;23;20378;-83
2022/06/25 17:30:30;;;;;;;2.07;1.87;;;27.70;48.80;;;;;;6119619;23;20382;-83
2022/06/25 17:33:13;;;;;;;2.10;1.90;;;27.70;48.80;;;;;;6120336;23;20426;-83
2022/06/25 17:35:47;;;;;;;2.33;1.97;;;27.70;48.90;;;;;;6119332;23;20837;-84
2022/06/25 17:38:18;;;;;;;2.70;2.07;;;27.70;48.80;;;;;;6119748;23;20369;-83
2022/06/25 17:40:56;;;;;;;2.47;2.23;;;27.70;48.90;;;;;;6120242;23;20699;-83
2022/06/25 17:43:27;;;;;;;3.00;2.00;;;27.70;48.80;;;;;;6120376;23;20378;-83
2022/06/25 17:52:57;;;;;;;2.13;1.93;;;27.70;48.90;;;;;;6033735;23;20348;-84
2022/06/25 17:55:27;;;;;;;2.23;2.03;;;27.70;48.90;;;;;;6034099;23;20383;-83
2022/06/25 17:58:19;;;;;;;2.77;1.90;;;27.70;48.90;;;;;;5987448;23;20436;-83
2022/06/25 18:04:34;;;;;;;2.10;1.90;;;27.70;48.90;;;;;;5951365;23;20339;-84
2022/06/25 18:07:12;;;;;;;2.40;1.77;;;27.60;48.80;;;;;;5950501;24;20391;-82
2022/06/25 18:16:54;;;;;;;2.20;1.90;;;27.60;48.80;;;;;;5897535;24;20403;-82
2022/06/25 18:19:41;;;;;;;2.20;1.77;;;27.60;48.90;;;;;;5873682;24;20412;-82
2022/06/25 18:22:21;;;;;;;1.90;1.70;;;27.60;48.80;;;;;;5874526;24;20428;-83
2022/06/25 18:25:53;;;;;;;1.73;1.63;;;27.60;48.80;;;;;;5897869;24;20396;-83
2022/06/25 18:31:48;;;;;;;2.50;1.50;;;27.60;48.80;;;;;;5950594;24;20431;-83
2022/06/25 18:34:15;;;;;;;1.90;1.63;;;27.60;48.80;;;;;;5928634;24;20414;-83
2022/06/25 18:36:47;;;;;;;2.33;1.67;;;27.60;48.80;;;;;;5934575;24;20432;-83
2022/06/25 18:39:22;;;;;;;2.80;1.60;;;27.60;48.80;;;;;;5938204;24;20390;-83
2022/06/25 18:48:39;;;;;;;1.73;1.63;;;27.60;48.70;;;;;;6025839;23;20366;-84
2022/06/25 18:51:08;;;;;;;2.07;1.87;;;27.70;48.80;;;;;;6063832;23;20392;-83
2022/06/25 18:53:38;;;;;;;2.07;1.87;;;27.60;48.80;;;;;;6119873;23;20404;-83
2022/06/25 18:56:10;;;;;;;2.47;1.87;;;27.60;48.80;;;;;;6094534;23;20436;-83
2022/06/25 18:58:41;;;;;;;2.70;2.00;;;27.70;48.80;;;;;;6119831;23;20370;-84
2022/06/25 19:01:23;;;;;;;;;;;;;;;;;;;;;
2022/06/25 19:04:09;;;;;;;2.33;1.30;;;27.70;48.80;;;;;;6117880;23;20361;-82
2022/06/25 19:06:37;;;;;;;1.60;1.50;;;27.70;48.90;;;;;;6140667;23;20414;-83
2022/06/25 19:09:06;;;;;;;1.90;1.80;;;27.70;48.90;;;;;;6116486;23;20388;-83
2022/06/25 19:11:32;;;;;;;2.73;2.27;;;27.70;48.90;;;;;;6118406;23;20445;-83
2022/06/25 19:14:03;;;;;;;2.43;1.60;;;27.70;48.90;;;;;;6116906;23;20436;-84
2022/06/25 19:16:32;;;;;;;2.00;1.57;;;27.70;48.90;;;;;;6091870;23;20157;-82
2022/06/25 19:19:09;;;;;;;2.10;1.90;;;27.70;48.80;;;;;;6116725;23;20381;-84
2022/06/25 19:21:35;;;;;;;2.10;1.90;;;27.70;48.80;;;;;;6118631;23;20378;-83
2022/06/25 19:24:02;;;;;;;3.43;1.50;;;27.70;49.40;;;;;;6117549;23;20397;-83
2022/06/25 19:26:29;;;;;;;2.17;1.97;;;27.70;48.80;;;;;;6118113;23;20413;-83
2022/06/25 19:28:59;;;;;;;1.73;1.63;;;27.70;48.80;;;;;;6118738;23;20354;-83
2022/06/25 19:31:28;;;;;;;1.40;1.30;;;27.70;48.80;;;;;;6117939;23;20377;-83
2022/06/25 19:33:55;;;;;;;2.10;1.83;;;27.70;48.80;;;;;;6117875;23;20458;-83
2022/06/25 19:36:32;;;;;;;;;;;;;;;;;;;;;
2022/06/25 19:39:03;;;;;;;2.33;1.70;;;27.70;48.90;;;;;;6116430;23;20397;-83
2022/06/25 19:41:31;;;;;;;1.80;1.60;;;27.70;48.90;;;;;;6117074;23;20377;-83
2022/06/25 19:44:00;;;;;;;1.70;1.60;;;27.70;48.90;;;;;;6116856;23;20390;-83
2022/06/25 19:46:28;;;;;;;2.00;1.73;;;27.70;48.90;;;;;;6119381;23;20393;-83
2022/06/25 19:49:15;;;;;;;;;;;;;;;;;;;;;
2022/06/25 19:51:43;;;;;;;1.50;1.40;;;27.70;49.50;;;;;;6122847;23;20381;-84
2022/06/25 19:54:18;;;;;;;1.97;1.77;;;27.70;48.90;;;;;;6122418;23;20433;-84
2022/06/25 19:56:46;;;;;;;1.67;1.50;;;27.70;48.90;;;;;;6138568;23;20410;-84
2022/06/25 19:59:20;;;;;;;1.70;1.60;;;27.70;48.90;;;;;;6150553;23;20369;-83
2022/06/25 20:02:00;;;;;;;1.73;1.60;;;27.70;49.00;;;;;;6151813;23;20326;-84
2022/06/25 20:04:26;;;;;;;1.97;1.77;;;27.70;49.00;;;;;;6151849;23;20357;-83
2022/06/25 20:10:27;;;;;;;1.90;1.60;;;27.70;49.00;;;;;;6151571;23;20348;-83
2022/06/25 20:12:53;;;;;;;2.00;1.70;;;27.70;49.00;;;;;;6125470;23;20381;-82
2022/06/25 20:15:42;;;;;;;2.43;2.00;;;27.70;49.10;;;;;;6124421;23;20429;-83
2022/06/25 20:18:14;;;;;;;2.13;1.93;;;27.70;49.10;;;;;;6124959;23;20403;-83
2022/06/25 20:20:54;;;;;;;2.63;2.20;;;27.70;49.10;;;;;;6150773;23;20412;-83
2022/06/25 20:23:57;;;;;;;1.97;1.80;;;27.70;49.10;;;;;;6124958;23;20377;-82
2022/06/25 20:26:32;;;;;;;3.10;2.20;;;27.70;49.10;;;;;;6004979;24;20410;-84
2022/06/25 20:29:01;;;;;;;1.80;1.70;;;27.70;49.10;;;;;;5982355;24;20380;-85
2022/06/25 20:31:34;;;;;;;2.10;1.93;;;27.70;49.10;;;;;;6005730;24;20374;-83
2022/06/25 20:34:07;;;;;;;2.30;1.70;;;27.70;49.10;;;;;;6007313;24;20480;-82
2022/06/25 20:36:36;;;;;;;2.30;1.63;;;27.70;49.10;;;;;;6004908;24;20362;-83
2022/06/25 20:39:04;;;;;;;2.40;2.20;;;27.70;49.10;;;;;;5983767;24;20385;-83
2022/06/25 20:41:34;;;;;;;1.97;1.77;;;27.70;49.10;;;;;;5981515;24;20378;-83
2022/06/25 20:44:07;;;;;;;2.07;1.90;;;27.70;49.10;;;;;;6005216;24;20369;-82
2022/06/25 20:46:36;;;;;;;1.83;1.67;;;27.70;49.10;;;;;;5984079;24;20374;-82
2022/06/25 20:49:05;;;;;;;1.80;1.70;;;27.70;49.10;;;;;;5982449;24;20393;-83
2022/06/25 20:51:33;;;;;;;1.90;1.70;;;27.70;49.10;;;;;;6007600;24;20368;-84
2022/06/25 20:53:59;;;;;;;1.60;1.50;;;27.70;49.10;;;;;;5986815;24;20492;-83
2022/06/25 20:56:25;;;;;;;2.93;2.10;;;27.70;49.10;;;;;;6037970;23;20426;-82
2022/06/25 20:58:55;;;;;;;1.67;1.47;;;27.70;49.10;;;;;;6121570;23;20373;-84
2022/06/25 21:01:29;;;;;;;1.80;1.70;;;27.70;49.10;;;;;;6096763;23;20398;-83
2022/06/25 21:09:26;;;;;;;2.10;1.90;;;27.70;49.10;;;;;;6120215;23;20363;-83
2022/06/25 21:11:52;;;;;;;2.40;2.20;;;27.70;49.10;;;;;;6119951;23;20386;-83
2022/06/25 21:14:18;;;;;;;2.00;1.83;;;27.70;49.20;;;;;;6118315;23;20429;-83
2022/06/25 21:16:44;;;;;;;2.00;1.80;;;27.70;49.10;;;;;;6119849;23;20276;-82
2022/06/25 21:19:12;;;;;;;2.23;1.77;;;27.70;49.10;;;;;;6120325;23;20386;-84
2022/06/25 21:21:40;;;;;;;2.10;1.90;;;27.70;49.10;;;;;;6119689;23;20382;-83
2022/06/25 21:24:08;;;;;;;2.17;1.90;;;27.70;49.10;;;;;;6117324;23;20401;-83
2022/06/25 21:27:05;;;;;;;;;;;;;;;;;;;;;
2022/06/25 21:29:31;;;;;;;4.53;2.17;;;27.70;49.10;;;;;;6111806;23;20389;-82
2022/06/25 21:32:00;;;;;;;2.37;2.17;;;27.70;49.20;;;;;;6120573;23;20403;-83
2022/06/25 21:34:29;;;;;;;2.77;2.40;;;27.70;49.20;;;;;;6119896;23;20185;-82
2022/06/25 21:36:55;;;;;;;2.63;1.80;;;27.70;49.20;;;;;;6120361;23;20384;-83
2022/06/25 21:39:21;;;;;;;2.20;2.00;;;27.70;49.20;;;;;;6120628;23;20510;-83
2022/06/25 21:41:47;;;;;;;1.93;1.73;;;27.70;49.20;;;;;;6116926;23;20381;-84
2022/06/25 21:44:13;;;;;;;2.10;1.67;;;27.70;49.20;;;;;;6118311;23;20394;-83
2022/06/25 21:46:40;;;;;;;2.17;1.90;;;27.70;49.20;;;;;;6118306;23;20225;-83
2022/06/25 21:49:08;;;;;;;2.73;2.40;;;27.70;49.20;;;;;;6116030;23;20394;-84
2022/06/25 21:51:37;;;;;;;2.50;2.17;;;27.70;49.20;;;;;;6115653;23;20463;-83
2022/06/25 21:57:03;;;;;;;2.93;2.03;;;27.70;49.20;;;;;;6131518;23;20404;-83
2022/06/25 21:59:36;;;;;;;2.53;2.23;;;27.70;49.20;;;;;;6096091;23;20385;-83
2022/06/25 22:02:03;;;;;;;4.47;2.67;;;27.70;49.20;;;;;;6121128;23;20381;-83
2022/06/25 22:04:30;;;;;;;1.93;1.80;;;27.70;49.20;;;;;;6096231;23;20380;-83
2022/06/25 22:07:07;;;;;;;4.80;2.03;;;27.70;49.20;;;;;;6123310;23;20416;-83
2022/06/25 22:09:42;;;;;;;2.50;2.00;;;27.70;49.20;;;;;;6122119;23;20376;-83
2022/06/25 22:12:08;;;;;;;2.10;2.00;;;27.70;49.20;;;;;;6147544;23;20469;-83
2022/06/25 22:14:34;;;;;;;2.37;2.17;;;27.70;49.20;;;;;;6148003;23;20424;-83
2022/06/25 22:17:02;;;;;;;2.70;2.50;;;27.70;49.20;;;;;;6149134;23;20409;-83
2022/06/25 22:19:31;;;;;;;2.40;2.20;;;27.70;49.20;;;;;;6119217;23;20425;-84
2022/06/25 22:21:56;;;;;;;2.50;2.30;;;27.70;49.20;;;;;;6118723;23;20389;-84
2022/06/25 22:24:24;;;;;;;3.63;2.40;;;27.70;49.20;;;;;;6144743;23;20439;-84
2022/06/25 22:26:50;;;;;;;2.50;2.30;;;27.70;49.20;;;;;;6118424;23;20208;-84
2022/06/25 22:29:16;;;;;;;2.60;2.40;;;27.70;49.20;;;;;;6120242;23;20416;-84
2022/06/25 22:31:42;;;;;;;2.50;2.30;;;27.70;49.20;;;;;;6115331;23;20153;-84
2022/06/25 22:34:08;;;;;;;3.20;2.30;;;27.70;49.20;;;;;;6116424;23;20435;-84
2022/06/25 22:36:34;;;;;;;2.20;2.00;;;27.70;49.20;;;;;;6116426;23;20161;-84
2022/06/25 22:39:04;;;;;;;2.23;2.07;;;27.70;49.20;;;;;;6116789;23;20153;-84
2022/06/25 22:41:32;;;;;;;2.60;2.40;;;27.70;49.20;;;;;;6116772;23;20389;-85
2022/06/25 22:43:58;;;;;;;2.20;2.03;;;27.70;49.20;;;;;;6118680;23;20408;-86
2022/06/25 22:46:23;;;;;;;2.90;2.60;;;27.70;49.20;;;;;;6120399;23;20397;-86
2022/06/25 22:48:52;;;;;;;3.07;2.57;;;27.70;49.20;;;;;;6121899;23;20239;-86
2022/06/25 22:51:27;;;;;;;2.50;2.30;;;27.70;49.20;;;;;;6119357;23;20157;-86
2022/06/25 22:53:58;;;;;;;2.83;2.47;;;27.70;49.20;;;;;;6117566;23;20423;-85
2022/06/25 22:56:48;;;;;;;2.70;2.50;;;27.70;49.20;;;;;;6113770;23;20445;-86
2022/06/25 22:59:14;;;;;;;3.10;2.80;;;27.70;49.20;;;;;;6133388;23;20396;-86
2022/06/25 23:01:43;;;;;;;2.53;2.33;;;27.70;49.20;;;;;;6113666;23;20381;-86
2022/06/25 23:04:33;;;;;;;2.60;2.40;;;27.70;49.30;;;;;;6114085;23;20389;-86
2022/06/25 23:07:02;;;;;;;2.50;2.30;;;27.70;49.30;;;;;;6114090;23;20394;-86
2022/06/25 23:09:28;;;;;;;2.60;2.40;;;27.70;49.30;;;;;;6114518;23;20762;-86
2022/06/25 23:11:54;;;;;;;3.00;2.70;;;27.70;49.30;;;;;;6090519;23;20410;-86
2022/06/25 23:14:20;;;;;;;2.60;2.40;;;27.70;49.30;;;;;;6114584;23;20433;-86
2022/06/25 23:16:46;;;;;;;2.73;2.53;;;27.70;49.30;;;;;;6114468;23;20201;-85
2022/06/25 23:25:47;;;;;;;3.33;3.03;;;27.60;49.20;;;;;;6117585;23;20349;-86
2022/06/25 23:28:14;;;;;;;2.77;2.57;;;27.60;49.30;;;;;;6115872;23;20449;-86
2022/06/25 23:30:39;;;;;;;3.00;2.80;;;27.60;49.30;;;;;;6115520;23;20457;-86
2022/06/25 23:33:06;;;;;;;2.70;2.50;;;27.60;49.30;;;;;;6116257;23;20683;-86
2022/06/25 23:35:56;;;;;;;2.83;2.63;;;27.60;49.30;;;;;;6117169;23;20154;-86
2022/06/25 23:38:35;;;;;;;2.93;2.73;;;27.60;49.30;;;;;;6117542;23;20388;-86
2022/06/25 23:41:01;;;;;;;2.70;2.50;;;27.60;49.30;;;;;;6115979;23;20410;-86
2022/06/25 23:43:27;;;;;;;3.30;2.37;;;27.60;49.30;;;;;;6115725;23;20385;-86
2022/06/25 23:45:52;;;;;;;3.33;3.03;;;27.60;49.30;;;;;;6116169;23;20158;-86
2022/06/25 23:48:19;;;;;;;3.00;2.80;;;27.60;49.30;;;;;;6117429;23;20165;-86
2022/06/25 23:50:45;;;;;;;3.27;2.97;;;27.60;49.30;;;;;;6115220;23;20150;-86
2022/06/25 23:53:11;;;;;;;3.43;3.13;;;27.60;49.30;;;;;;6115512;23;20413;-86
2022/06/25 23:55:37;;;;;;;3.50;3.20;;;27.60;49.30;;;;;;6117873;23;20146;-85
2022/06/25 23:58:02;;;;;;;2.93;2.30;;;27.60;49.30;;;;;;6119381;23;20149;-84
